sensor_id;sensor_type;location;lat;lon;timestamp;pressure;altitude;pressure_sealevel;temperature;humidity
38400;BME280;24180;42.676;23.320;2022-11-23T00:01:25;93476.69;;;7.46;100.00
38400;BME280;24180;42.676;23.320;2022-11-23T00:03:53;93477.16;;;7.34;100.00
38400;BME280;24180;42.676;23.320;2022-11-23T00:06:19;93489.66;;;7.21;100.00
38400;BME280;24180;42.676;23.320;2022-11-23T00:08:50;93489.75;;;7.11;100.00
38400;BME280;24180;42.676;23.320;2022-11-23T00:11:16;93470.88;;;7.02;100.00
38400;BME280;24180;42.676;23.320;2022-11-23T00:13:43;93482.84;;;7.12;100.00
38400;BME280;24180;42.676;23.320;2022-11-23T00:16:16;93487.81;;;7.05;100.00
38400;BME280;24180;42.676;23.320;2022-11-23T00:18:43;93479.94;;;7.15;100.00
38400;BME280;24180;42.676;23.320;2022-11-23T00:21:13;93478.84;;;7.17;100.00
38400;BME280;24180;42.676;23.320;2022-11-23T00:23:39;93469.38;;;7.18;100.00
38400;BME280;24180;42.676;23.320;2022-11-23T00:26:05;93468.56;;;7.17;100.00
38400;BME280;24180;42.676;23.320;2022-11-23T00:28:30;93469.09;;;7.29;100.00
38400;BME280;24180;42.676;23.320;2022-11-23T00:30:56;93472.81;;;7.42;100.00
38400;BME280;24180;42.676;23.320;2022-11-23T00:33:22;93473.16;;;7.47;100.00
38400;BME280;24180;42.676;23.320;2022-11-23T00:35:47;93479.59;;;7.43;100.00
38400;BME280;24180;42.676;23.320;2022-11-23T00:38:22;93486.25;;;7.20;100.00
38400;BME280;24180;42.676;23.320;2022-11-23T00:40:47;93467.25;;;7.13;100.00
38400;BME280;24180;42.676;23.320;2022-11-23T00:43:13;93463.63;;;7.32;100.00
38400;BME280;24180;42.676;23.320;2022-11-23T00:45:38;93467.91;;;7.23;100.00
38400;BME280;24180;42.676;23.320;2022-11-23T00:48:04;93460.50;;;7.20;100.00
38400;BME280;24180;42.676;23.320;2022-11-23T00:50:29;93481.22;;;7.11;100.00
38400;BME280;24180;42.676;23.320;2022-11-23T00:52:55;93470.31;;;7.17;100.00
38400;BME280;24180;42.676;23.320;2022-11-23T00:55:20;93462.28;;;7.20;100.00
38400;BME280;24180;42.676;23.320;2022-11-23T00:57:46;93461.84;;;7.32;100.00
38400;BME280;24180;42.676;23.320;2022-11-23T01:00:12;93457.03;;;7.29;100.00
38400;BME280;24180;42.676;23.320;2022-11-23T01:02:37;93460.41;;;7.30;100.00
38400;BME280;24180;42.676;23.320;2022-11-23T01:05:03;93447.22;;;7.33;100.00
38400;BME280;24180;42.676;23.320;2022-11-23T01:07:28;93436.75;;;7.34;100.00
38400;BME280;24180;42.676;23.320;2022-11-23T01:09:57;93439.94;;;7.28;100.00
38400;BME280;24180;42.676;23.320;2022-11-23T01:12:22;93454.56;;;7.20;100.00
38400;BME280;24180;42.676;23.320;2022-11-23T01:14:48;93440.53;;;7.06;100.00
38400;BME280;24180;42.676;23.320;2022-11-23T01:17:13;93460.84;;;7.17;100.00
38400;BME280;24180;42.676;23.320;2022-11-23T01:19:39;93449.84;;;7.07;100.00
38400;BME280;24180;42.676;23.320;2022-11-23T01:22:04;93435.69;;;7.11;100.00
38400;BME280;24180;42.676;23.320;2022-11-23T01:24:29;93428.66;;;7.21;100.00
38400;BME280;24180;42.676;23.320;2022-11-23T01:26:55;93423.53;;;7.21;100.00
38400;BME280;24180;42.676;23.320;2022-11-23T01:29:21;93429.00;;;7.34;100.00
38400;BME280;24180;42.676;23.320;2022-11-23T01:31:47;93415.50;;;7.32;100.00
38400;BME280;24180;42.676;23.320;2022-11-23T01:34:14;93454.66;;;7.44;100.00
38400;BME280;24180;42.676;23.320;2022-11-23T01:36:39;93470.22;;;7.34;100.00
38400;BME280;24180;42.676;23.320;2022-11-23T01:39:05;93461.16;;;7.22;100.00
38400;BME280;24180;42.676;23.320;2022-11-23T01:41:34;93449.56;;;7.18;100.00
38400;BME280;24180;42.676;23.320;2022-11-23T01:44:00;93427.88;;;7.21;100.00
38400;BME280;24180;42.676;23.320;2022-11-23T01:46:44;93414.34;;;7.27;100.00
38400;BME280;24180;42.676;23.320;2022-11-23T01:49:10;93439.59;;;7.23;100.00
38400;BME280;24180;42.676;23.320;2022-11-23T01:51:40;93455.22;;;7.22;100.00
38400;BME280;24180;42.676;23.320;2022-11-23T01:54:21;93438.28;;;7.11;100.00
38400;BME280;24180;42.676;23.320;2022-11-23T01:56:52;93446.28;;;7.00;100.00
38400;BME280;24180;42.676;23.320;2022-11-23T01:59:20;93426.09;;;6.87;100.00
38400;BME280;24180;42.676;23.320;2022-11-23T02:01:47;93442.38;;;6.96;100.00
38400;BME280;24180;42.676;23.320;2022-11-23T02:04:20;93441.44;;;6.97;100.00
38400;BME280;24180;42.676;23.320;2022-11-23T02:06:47;93440.34;;;6.74;100.00
38400;BME280;24180;42.676;23.320;2022-11-23T02:09:14;93421.00;;;6.62;100.00
38400;BME280;24180;42.676;23.320;2022-11-23T02:11:40;93384.28;;;6.51;100.00
38400;BME280;24180;42.676;23.320;2022-11-23T02:14:06;93411.09;;;6.75;100.00
38400;BME280;24180;42.676;23.320;2022-11-23T02:16:32;93416.75;;;6.52;100.00
38400;BME280;24180;42.676;23.320;2022-11-23T02:18:58;93406.66;;;6.59;100.00
38400;BME280;24180;42.676;23.320;2022-11-23T02:21:23;93410.94;;;6.76;100.00
38400;BME280;24180;42.676;23.320;2022-11-23T02:24:13;93408.81;;;6.72;100.00
38400;BME280;24180;42.676;23.320;2022-11-23T02:26:43;93400.66;;;6.76;100.00
38400;BME280;24180;42.676;23.320;2022-11-23T02:29:17;93402.22;;;6.69;100.00
38400;BME280;24180;42.676;23.320;2022-11-23T02:31:45;93400.28;;;6.71;100.00
38400;BME280;24180;42.676;23.320;2022-11-23T02:34:10;93403.03;;;6.70;100.00
38400;BME280;24180;42.676;23.320;2022-11-23T02:41:36;93377.16;;;6.71;100.00
38400;BME280;24180;42.676;23.320;2022-11-23T02:44:03;93356.53;;;6.63;100.00
38400;BME280;24180;42.676;23.320;2022-11-23T02:46:30;93379.91;;;6.70;100.00
38400;BME280;24180;42.676;23.320;2022-11-23T02:48:56;93372.00;;;6.71;100.00
38400;BME280;24180;42.676;23.320;2022-11-23T02:51:21;93362.97;;;6.67;100.00
38400;BME280;24180;42.676;23.320;2022-11-23T02:53:46;93362.63;;;6.62;100.00
38400;BME280;24180;42.676;23.320;2022-11-23T02:56:12;93365.03;;;6.55;100.00
38400;BME280;24180;42.676;23.320;2022-11-23T02:58:37;93377.91;;;6.64;100.00
38400;BME280;24180;42.676;23.320;2022-11-23T03:01:03;93367.66;;;6.72;100.00
38400;BME280;24180;42.676;23.320;2022-11-23T03:03:28;93360.91;;;6.71;100.00
38400;BME280;24180;42.676;23.320;2022-11-23T03:05:53;93346.75;;;6.67;100.00
38400;BME280;24180;42.676;23.320;2022-11-23T03:08:19;93349.84;;;6.78;100.00
38400;BME280;24180;42.676;23.320;2022-11-23T03:10:44;93343.31;;;6.24;100.00
38400;BME280;24180;42.676;23.320;2022-11-23T03:13:10;93327.50;;;6.37;100.00
38400;BME280;24180;42.676;23.320;2022-11-23T03:15:38;93338.81;;;6.52;100.00
38400;BME280;24180;42.676;23.320;2022-11-23T03:18:04;93346.91;;;6.31;100.00
38400;BME280;24180;42.676;23.320;2022-11-23T03:20:29;93333.63;;;6.44;100.00
38400;BME280;24180;42.676;23.320;2022-11-23T03:22:54;93347.03;;;6.55;100.00
38400;BME280;24180;42.676;23.320;2022-11-23T03:25:20;93357.56;;;6.44;100.00
38400;BME280;24180;42.676;23.320;2022-11-23T03:27:45;93332.81;;;6.43;100.00
38400;BME280;24180;42.676;23.320;2022-11-23T03:30:11;93328.34;;;6.45;100.00
38400;BME280;24180;42.676;23.320;2022-11-23T03:32:37;93336.06;;;6.45;100.00
38400;BME280;24180;42.676;23.320;2022-11-23T03:35:03;93347.38;;;6.35;100.00
38400;BME280;24180;42.676;23.320;2022-11-23T03:37:29;93331.88;;;6.44;100.00
38400;BME280;24180;42.676;23.320;2022-11-23T03:39:55;93317.75;;;6.48;100.00
38400;BME280;24180;42.676;23.320;2022-11-23T03:42:20;93328.13;;;6.39;100.00
38400;BME280;24180;42.676;23.320;2022-11-23T03:44:46;93324.78;;;6.46;100.00
38400;BME280;24180;42.676;23.320;2022-11-23T03:47:11;93311.03;;;6.55;100.00
38400;BME280;24180;42.676;23.320;2022-11-23T03:49:36;93308.09;;;6.50;100.00
38400;BME280;24180;42.676;23.320;2022-11-23T03:52:02;93314.94;;;6.34;100.00
38400;BME280;24180;42.676;23.320;2022-11-23T03:54:28;93301.97;;;6.43;100.00
38400;BME280;24180;42.676;23.320;2022-11-23T03:56:53;93297.84;;;6.58;100.00
38400;BME280;24180;42.676;23.320;2022-11-23T03:59:18;93300.75;;;6.64;100.00
38400;BME280;24180;42.676;23.320;2022-11-23T04:01:44;93281.38;;;6.35;100.00
38400;BME280;24180;42.676;23.320;2022-11-23T04:04:09;93299.47;;;6.59;100.00
38400;BME280;24180;42.676;23.320;2022-11-23T04:06:35;93310.66;;;6.50;100.00
38400;BME280;24180;42.676;23.320;2022-11-23T04:09:00;93304.25;;;6.54;100.00
38400;BME280;24180;42.676;23.320;2022-11-23T04:11:26;93312.66;;;6.65;100.00
38400;BME280;24180;42.676;23.320;2022-11-23T04:13:51;93325.22;;;6.68;100.00
38400;BME280;24180;42.676;23.320;2022-11-23T04:16:16;93306.84;;;6.54;100.00
38400;BME280;24180;42.676;23.320;2022-11-23T04:18:42;93327.81;;;6.76;100.00
38400;BME280;24180;42.676;23.320;2022-11-23T04:21:07;93325.91;;;6.78;100.00
38400;BME280;24180;42.676;23.320;2022-11-23T04:23:33;93333.50;;;6.45;100.00
38400;BME280;24180;42.676;23.320;2022-11-23T04:25:58;93325.59;;;6.47;100.00
38400;BME280;24180;42.676;23.320;2022-11-23T04:28:24;93314.75;;;6.61;100.00
38400;BME280;24180;42.676;23.320;2022-11-23T04:30:49;93318.44;;;6.67;100.00
38400;BME280;24180;42.676;23.320;2022-11-23T04:33:15;93320.44;;;6.81;100.00
38400;BME280;24180;42.676;23.320;2022-11-23T04:35:40;93304.00;;;6.66;100.00
38400;BME280;24180;42.676;23.320;2022-11-23T04:38:06;93311.22;;;6.70;100.00
38400;BME280;24180;42.676;23.320;2022-11-23T04:40:31;93306.00;;;6.46;100.00
38400;BME280;24180;42.676;23.320;2022-11-23T04:42:57;93341.09;;;6.63;100.00
38400;BME280;24180;42.676;23.320;2022-11-23T04:45:23;93332.84;;;6.51;100.00
38400;BME280;24180;42.676;23.320;2022-11-23T04:47:50;93337.00;;;6.44;100.00
38400;BME280;24180;42.676;23.320;2022-11-23T04:50:15;93331.41;;;6.49;100.00
38400;BME280;24180;42.676;23.320;2022-11-23T04:52:41;93347.09;;;6.38;100.00
38400;BME280;24180;42.676;23.320;2022-11-23T04:55:06;93350.97;;;6.42;100.00
38400;BME280;24180;42.676;23.320;2022-11-23T04:57:32;93346.16;;;6.47;100.00
38400;BME280;24180;42.676;23.320;2022-11-23T04:59:57;93340.84;;;6.40;100.00
38400;BME280;24180;42.676;23.320;2022-11-23T05:02:23;93355.19;;;6.17;100.00
38400;BME280;24180;42.676;23.320;2022-11-23T05:04:48;93358.16;;;6.38;100.00
38400;BME280;24180;42.676;23.320;2022-11-23T05:07:13;93377.72;;;6.57;100.00
38400;BME280;24180;42.676;23.320;2022-11-23T05:09:39;93361.50;;;6.56;100.00
38400;BME280;24180;42.676;23.320;2022-11-23T05:12:04;93348.28;;;6.51;100.00
38400;BME280;24180;42.676;23.320;2022-11-23T05:14:30;93378.00;;;6.46;100.00
38400;BME280;24180;42.676;23.320;2022-11-23T05:16:56;93371.56;;;6.50;100.00
38400;BME280;24180;42.676;23.320;2022-11-23T05:19:21;93364.88;;;6.57;100.00
38400;BME280;24180;42.676;23.320;2022-11-23T05:21:46;93366.00;;;6.63;100.00
38400;BME280;24180;42.676;23.320;2022-11-23T05:24:12;93367.97;;;6.69;100.00
38400;BME280;24180;42.676;23.320;2022-11-23T05:26:37;93326.59;;;6.54;100.00
38400;BME280;24180;42.676;23.320;2022-11-23T05:29:03;93327.41;;;6.54;100.00
38400;BME280;24180;42.676;23.320;2022-11-23T05:31:28;93324.50;;;6.49;100.00
38400;BME280;24180;42.676;23.320;2022-11-23T05:33:53;93338.28;;;6.40;100.00
38400;BME280;24180;42.676;23.320;2022-11-23T05:36:19;93307.47;;;6.48;100.00
38400;BME280;24180;42.676;23.320;2022-11-23T05:38:44;93326.59;;;6.54;100.00
38400;BME280;24180;42.676;23.320;2022-11-23T05:41:10;93335.84;;;6.39;100.00
38400;BME280;24180;42.676;23.320;2022-11-23T05:43:35;93324.34;;;6.17;100.00
38400;BME280;24180;42.676;23.320;2022-11-23T05:46:01;93328.44;;;6.36;100.00
38400;BME280;24180;42.676;23.320;2022-11-23T05:48:27;93332.84;;;6.51;100.00
38400;BME280;24180;42.676;23.320;2022-11-23T05:50:52;93330.44;;;6.50;100.00
38400;BME280;24180;42.676;23.320;2022-11-23T05:53:18;93334.50;;;6.61;100.00
38400;BME280;24180;42.676;23.320;2022-11-23T05:55:44;93347.78;;;6.82;100.00
38400;BME280;24180;42.676;23.320;2022-11-23T05:58:11;93344.66;;;6.70;100.00
38400;BME280;24180;42.676;23.320;2022-11-23T06:00:36;93341.00;;;6.73;100.00
38400;BME280;24180;42.676;23.320;2022-11-23T06:03:02;93351.88;;;6.67;100.00
38400;BME280;24180;42.676;23.320;2022-11-23T06:05:28;93317.19;;;6.71;100.00
38400;BME280;24180;42.676;23.320;2022-11-23T06:07:54;93335.41;;;6.85;100.00
38400;BME280;24180;42.676;23.320;2022-11-23T06:10:19;93347.06;;;6.64;100.00
38400;BME280;24180;42.676;23.320;2022-11-23T06:12:45;93335.47;;;6.59;100.00
38400;BME280;24180;42.676;23.320;2022-11-23T06:15:11;93360.88;;;6.63;100.00
38400;BME280;24180;42.676;23.320;2022-11-23T06:17:37;93345.94;;;6.66;100.00
38400;BME280;24180;42.676;23.320;2022-11-23T06:20:04;93351.09;;;6.74;100.00
38400;BME280;24180;42.676;23.320;2022-11-23T06:22:30;93366.44;;;6.84;100.00
38400;BME280;24180;42.676;23.320;2022-11-23T06:24:55;93363.53;;;6.87;100.00
38400;BME280;24180;42.676;23.320;2022-11-23T06:27:21;93343.88;;;6.70;100.00
38400;BME280;24180;42.676;23.320;2022-11-23T06:29:46;93373.22;;;6.93;100.00
38400;BME280;24180;42.676;23.320;2022-11-23T06:32:12;93349.59;;;6.97;100.00
38400;BME280;24180;42.676;23.320;2022-11-23T06:34:37;93373.59;;;7.14;100.00
38400;BME280;24180;42.676;23.320;2022-11-23T06:37:03;93367.31;;;7.00;100.00
38400;BME280;24180;42.676;23.320;2022-11-23T06:39:30;93355.59;;;7.06;100.00
38400;BME280;24180;42.676;23.320;2022-11-23T06:41:55;93376.88;;;7.24;100.00
38400;BME280;24180;42.676;23.320;2022-11-23T06:44:20;93353.34;;;7.19;100.00
38400;BME280;24180;42.676;23.320;2022-11-23T06:46:46;93361.47;;;7.40;100.00
38400;BME280;24180;42.676;23.320;2022-11-23T06:49:11;93355.38;;;7.49;100.00
38400;BME280;24180;42.676;23.320;2022-11-23T06:51:38;93358.41;;;7.53;100.00
38400;BME280;24180;42.676;23.320;2022-11-23T06:54:04;93350.84;;;7.60;100.00
38400;BME280;24180;42.676;23.320;2022-11-23T06:56:32;93354.72;;;7.72;100.00
38400;BME280;24180;42.676;23.320;2022-11-23T06:58:58;93363.06;;;7.41;100.00
38400;BME280;24180;42.676;23.320;2022-11-23T07:01:24;93363.72;;;7.51;100.00
38400;BME280;24180;42.676;23.320;2022-11-23T07:03:49;93363.13;;;7.82;100.00
38400;BME280;24180;42.676;23.320;2022-11-23T07:06:14;93350.22;;;7.82;100.00
38400;BME280;24180;42.676;23.320;2022-11-23T07:08:40;93375.19;;;7.97;100.00
38400;BME280;24180;42.676;23.320;2022-11-23T07:11:09;93371.31;;;7.85;100.00
38400;BME280;24180;42.676;23.320;2022-11-23T07:13:35;93364.88;;;8.14;100.00
38400;BME280;24180;42.676;23.320;2022-11-23T07:16:01;93367.13;;;8.09;100.00
38400;BME280;24180;42.676;23.320;2022-11-23T07:18:26;93371.47;;;8.16;100.00
38400;BME280;24180;42.676;23.320;2022-11-23T07:20:52;93356.00;;;8.24;100.00
38400;BME280;24180;42.676;23.320;2022-11-23T07:23:18;93369.56;;;8.18;100.00
38400;BME280;24180;42.676;23.320;2022-11-23T07:25:43;93386.31;;;7.90;100.00
38400;BME280;24180;42.676;23.320;2022-11-23T07:28:10;93381.94;;;8.07;100.00
38400;BME280;24180;42.676;23.320;2022-11-23T07:30:36;93375.66;;;8.17;100.00
38400;BME280;24180;42.676;23.320;2022-11-23T07:33:06;93372.75;;;8.28;100.00
38400;BME280;24180;42.676;23.320;2022-11-23T07:35:33;93380.50;;;7.96;100.00
38400;BME280;24180;42.676;23.320;2022-11-23T07:38:02;93391.78;;;8.03;100.00
38400;BME280;24180;42.676;23.320;2022-11-23T07:40:28;93385.81;;;8.43;100.00
38400;BME280;24180;42.676;23.320;2022-11-23T07:42:58;93374.66;;;8.51;100.00
38400;BME280;24180;42.676;23.320;2022-11-23T07:45:24;93390.66;;;8.46;100.00
38400;BME280;24180;42.676;23.320;2022-11-23T07:48:00;93384.50;;;8.15;100.00
38400;BME280;24180;42.676;23.320;2022-11-23T07:50:26;93395.50;;;8.41;100.00
38400;BME280;24180;42.676;23.320;2022-11-23T07:52:51;93376.00;;;8.30;100.00
38400;BME280;24180;42.676;23.320;2022-11-23T07:55:16;93366.78;;;8.20;100.00
38400;BME280;24180;42.676;23.320;2022-11-23T07:57:42;93379.88;;;7.94;100.00
38400;BME280;24180;42.676;23.320;2022-11-23T08:00:08;93374.22;;;7.74;100.00
38400;BME280;24180;42.676;23.320;2022-11-23T08:02:34;93368.28;;;7.98;100.00
38400;BME280;24180;42.676;23.320;2022-11-23T08:04:59;93378.25;;;8.01;100.00
38400;BME280;24180;42.676;23.320;2022-11-23T08:07:24;93357.16;;;7.97;100.00
38400;BME280;24180;42.676;23.320;2022-11-23T08:09:50;93359.56;;;7.91;100.00
38400;BME280;24180;42.676;23.320;2022-11-23T08:12:15;93392.44;;;7.89;100.00
38400;BME280;24180;42.676;23.320;2022-11-23T08:14:41;93387.28;;;7.89;100.00
38400;BME280;24180;42.676;23.320;2022-11-23T08:17:07;93365.69;;;8.14;100.00
38400;BME280;24180;42.676;23.320;2022-11-23T08:19:33;93352.63;;;8.32;100.00
38400;BME280;24180;42.676;23.320;2022-11-23T08:21:58;93346.97;;;8.44;100.00
38400;BME280;24180;42.676;23.320;2022-11-23T08:24:23;93350.84;;;8.40;100.00
38400;BME280;24180;42.676;23.320;2022-11-23T08:26:49;93366.91;;;8.51;100.00
38400;BME280;24180;42.676;23.320;2022-11-23T08:29:14;93359.50;;;8.56;100.00
38400;BME280;24180;42.676;23.320;2022-11-23T08:31:40;93345.97;;;8.62;100.00
38400;BME280;24180;42.676;23.320;2022-11-23T08:34:07;93366.53;;;8.86;100.00
38400;BME280;24180;42.676;23.320;2022-11-23T08:36:32;93360.50;;;9.02;100.00
38400;BME280;24180;42.676;23.320;2022-11-23T08:38:58;93341.56;;;9.09;100.00
38400;BME280;24180;42.676;23.320;2022-11-23T08:41:23;93357.44;;;9.29;100.00
38400;BME280;24180;42.676;23.320;2022-11-23T08:43:49;93357.91;;;9.32;100.00
38400;BME280;24180;42.676;23.320;2022-11-23T08:46:15;93367.19;;;9.50;100.00
38400;BME280;24180;42.676;23.320;2022-11-23T08:48:41;93361.38;;;9.48;100.00
38400;BME280;24180;42.676;23.320;2022-11-23T08:51:08;93368.25;;;9.55;100.00
38400;BME280;24180;42.676;23.320;2022-11-23T08:53:34;93346.22;;;9.45;100.00
38400;BME280;24180;42.676;23.320;2022-11-23T08:56:00;93374.47;;;9.69;100.00
38400;BME280;24180;42.676;23.320;2022-11-23T08:58:27;93390.91;;;9.76;100.00
38400;BME280;24180;42.676;23.320;2022-11-23T09:00:52;93382.75;;;9.87;100.00
38400;BME280;24180;42.676;23.320;2022-11-23T09:03:17;93359.28;;;10.11;100.00
38400;BME280;24180;42.676;23.320;2022-11-23T09:05:43;93368.16;;;10.69;100.00
38400;BME280;24180;42.676;23.320;2022-11-23T09:08:08;93369.06;;;11.56;100.00
38400;BME280;24180;42.676;23.320;2022-11-23T09:10:34;93364.25;;;11.53;100.00
38400;BME280;24180;42.676;23.320;2022-11-23T09:13:00;93370.25;;;12.10;100.00
38400;BME280;24180;42.676;23.320;2022-11-23T09:15:25;93387.59;;;13.15;100.00
38400;BME280;24180;42.676;23.320;2022-11-23T09:17:51;93402.00;;;13.17;100.00
38400;BME280;24180;42.676;23.320;2022-11-23T09:20:17;93383.31;;;14.22;100.00
38400;BME280;24180;42.676;23.320;2022-11-23T09:22:42;93379.53;;;14.90;100.00
38400;BME280;24180;42.676;23.320;2022-11-23T09:25:08;93400.47;;;15.41;100.00
38400;BME280;24180;42.676;23.320;2022-11-23T09:27:34;93399.31;;;16.26;100.00
38400;BME280;24180;42.676;23.320;2022-11-23T09:30:00;93399.31;;;17.07;100.00
38400;BME280;24180;42.676;23.320;2022-11-23T09:32:26;93399.41;;;17.18;100.00
38400;BME280;24180;42.676;23.320;2022-11-23T09:34:51;93388.97;;;16.44;100.00
38400;BME280;24180;42.676;23.320;2022-11-23T09:37:17;93398.00;;;16.10;100.00
38400;BME280;24180;42.676;23.320;2022-11-23T09:39:43;93371.84;;;16.98;100.00
38400;BME280;24180;42.676;23.320;2022-11-23T09:52:54;93392.88;;;18.83;100.00
38400;BME280;24180;42.676;23.320;2022-11-23T09:55:37;93392.34;;;20.31;100.00
38400;BME280;24180;42.676;23.320;2022-11-23T09:58:05;93395.38;;;21.34;100.00
38400;BME280;24180;42.676;23.320;2022-11-23T10:01:00;93395.44;;;22.21;99.70
38400;BME280;24180;42.676;23.320;2022-11-23T10:03:28;93388.59;;;22.74;88.93
38400;BME280;24180;42.676;23.320;2022-11-23T10:06:24;93383.84;;;23.45;86.16
38400;BME280;24180;42.676;23.320;2022-11-23T10:12:11;93386.19;;;23.88;79.10
38400;BME280;24180;42.676;23.320;2022-11-23T10:15:09;93384.50;;;22.34;88.03
38400;BME280;24180;42.676;23.320;2022-11-23T10:17:48;93388.06;;;21.80;96.65
38400;BME280;24180;42.676;23.320;2022-11-23T10:23:16;93386.50;;;20.00;100.00
38400;BME280;24180;42.676;23.320;2022-11-23T10:25:48;93391.63;;;20.35;100.00
38400;BME280;24180;42.676;23.320;2022-11-23T10:28:17;93387.47;;;19.83;100.00
38400;BME280;24180;42.676;23.320;2022-11-23T10:30:52;93386.25;;;18.69;100.00
38400;BME280;24180;42.676;23.320;2022-11-23T10:33:29;93375.06;;;17.54;100.00
38400;BME280;24180;42.676;23.320;2022-11-23T10:35:55;93382.69;;;16.76;100.00
38400;BME280;24180;42.676;23.320;2022-11-23T10:38:24;93380.41;;;16.30;100.00
38400;BME280;24180;42.676;23.320;2022-11-23T10:41:11;93368.31;;;16.85;100.00
38400;BME280;24180;42.676;23.320;2022-11-23T10:46:31;93358.53;;;21.34;100.00
38400;BME280;24180;42.676;23.320;2022-11-23T10:49:22;93357.34;;;22.34;94.06
38400;BME280;24180;42.676;23.320;2022-11-23T10:52:27;93372.16;;;20.48;100.00
38400;BME280;24180;42.676;23.320;2022-11-23T10:54:55;93361.63;;;19.28;100.00
38400;BME280;24180;42.676;23.320;2022-11-23T10:57:30;93358.50;;;18.08;100.00
38400;BME280;24180;42.676;23.320;2022-11-23T11:02:39;93366.13;;;17.07;100.00
38400;BME280;24180;42.676;23.320;2022-11-23T11:05:35;93374.00;;;16.58;100.00
38400;BME280;24180;42.676;23.320;2022-11-23T11:08:13;93352.00;;;16.09;100.00
38400;BME280;24180;42.676;23.320;2022-11-23T11:10:59;93367.78;;;15.96;100.00
38400;BME280;24180;42.676;23.320;2022-11-23T11:13:39;93354.41;;;15.79;100.00
38400;BME280;24180;42.676;23.320;2022-11-23T11:16:21;93352.19;;;15.25;100.00
38400;BME280;24180;42.676;23.320;2022-11-23T11:18:50;93361.19;;;15.36;100.00
38400;BME280;24180;42.676;23.320;2022-11-23T11:21:20;93358.38;;;15.31;100.00
38400;BME280;24180;42.676;23.320;2022-11-23T11:23:52;93353.63;;;15.15;100.00
38400;BME280;24180;42.676;23.320;2022-11-23T11:26:23;93363.66;;;15.05;100.00
38400;BME280;24180;42.676;23.320;2022-11-23T11:28:57;93344.84;;;14.89;100.00
38400;BME280;24180;42.676;23.320;2022-11-23T11:39:32;93341.31;;;14.64;100.00
38400;BME280;24180;42.676;23.320;2022-11-23T11:42:03;93330.91;;;14.51;100.00
38400;BME280;24180;42.676;23.320;2022-11-23T11:44:32;93317.84;;;14.25;100.00
38400;BME280;24180;42.676;23.320;2022-11-23T11:47:07;93347.50;;;14.37;100.00
38400;BME280;24180;42.676;23.320;2022-11-23T11:49:42;93340.88;;;14.34;100.00
38400;BME280;24180;42.676;23.320;2022-11-23T11:52:17;93350.13;;;14.37;100.00
38400;BME280;24180;42.676;23.320;2022-11-23T11:57:48;93356.09;;;14.31;100.00
38400;BME280;24180;42.676;23.320;2022-11-23T12:00:19;93337.28;;;14.22;100.00
38400;BME280;24180;42.676;23.320;2022-11-23T12:02:56;93349.53;;;14.41;100.00
38400;BME280;24180;42.676;23.320;2022-11-23T12:08:07;93350.72;;;14.59;100.00
38400;BME280;24180;42.676;23.320;2022-11-23T12:13:13;93352.13;;;14.55;100.00
38400;BME280;24180;42.676;23.320;2022-11-23T12:15:43;93349.72;;;14.53;100.00
38400;BME280;24180;42.676;23.320;2022-11-23T12:21:03;93347.69;;;14.29;100.00
38400;BME280;24180;42.676;23.320;2022-11-23T12:23:49;93340.06;;;14.21;100.00
38400;BME280;24180;42.676;23.320;2022-11-23T12:29:11;93339.88;;;14.16;100.00
38400;BME280;24180;42.676;23.320;2022-11-23T12:31:45;93336.28;;;14.23;100.00
38400;BME280;24180;42.676;23.320;2022-11-23T12:34:52;93334.06;;;14.27;100.00
38400;BME280;24180;42.676;23.320;2022-11-23T12:37:49;93337.66;;;14.26;100.00
38400;BME280;24180;42.676;23.320;2022-11-23T12:43:21;93334.84;;;14.01;100.00
38400;BME280;24180;42.676;23.320;2022-11-23T12:53:45;93339.28;;;14.27;100.00
38400;BME280;24180;42.676;23.320;2022-11-23T12:58:51;93353.06;;;14.21;99.79
38400;BME280;24180;42.676;23.320;2022-11-23T13:01:25;93355.47;;;14.02;100.00
38400;BME280;24180;42.676;23.320;2022-11-23T13:07:02;93354.41;;;13.77;96.98
38400;BME280;24180;42.676;23.320;2022-11-23T13:15:17;93338.63;;;13.85;100.00
38400;BME280;24180;42.676;23.320;2022-11-23T13:20:26;93360.47;;;13.97;95.91
38400;BME280;24180;42.676;23.320;2022-11-23T13:22:56;93356.69;;;14.00;88.49
38400;BME280;24180;42.676;23.320;2022-11-23T13:25:24;93349.66;;;13.87;91.41
38400;BME280;24180;42.676;23.320;2022-11-23T13:32:58;93347.19;;;13.66;100.00
38400;BME280;24180;42.676;23.320;2022-11-23T13:40:24;93368.75;;;13.47;100.00
38400;BME280;24180;42.676;23.320;2022-11-23T13:42:50;93363.31;;;13.42;100.00
38400;BME280;24180;42.676;23.320;2022-11-23T13:45:23;93377.88;;;13.36;100.00
38400;BME280;24180;42.676;23.320;2022-11-23T13:53:34;93379.97;;;13.60;100.00
38400;BME280;24180;42.676;23.320;2022-11-23T13:58:55;93390.75;;;13.51;100.00
38400;BME280;24180;42.676;23.320;2022-11-23T14:15:14;93427.41;;;13.22;100.00
38400;BME280;24180;42.676;23.320;2022-11-23T14:21:11;93427.69;;;13.05;100.00
38400;BME280;24180;42.676;23.320;2022-11-23T14:42:43;93412.75;;;12.31;100.00
38400;BME280;24180;42.676;23.320;2022-11-23T14:45:13;93411.97;;;12.37;100.00
38400;BME280;24180;42.676;23.320;2022-11-23T14:47:39;93406.91;;;12.29;100.00
38400;BME280;24180;42.676;23.320;2022-11-23T14:50:15;93423.69;;;12.26;100.00
38400;BME280;24180;42.676;23.320;2022-11-23T14:52:45;93414.41;;;12.17;100.00
38400;BME280;24180;42.676;23.320;2022-11-23T14:55:22;93408.59;;;11.94;100.00
38400;BME280;24180;42.676;23.320;2022-11-23T14:57:51;93410.38;;;11.93;100.00
38400;BME280;24180;42.676;23.320;2022-11-23T15:00:39;93412.59;;;11.75;100.00
38400;BME280;24180;42.676;23.320;2022-11-23T15:03:08;93407.69;;;11.36;100.00